Terminal Aerodrome Forecast
Issued by NWS Cleveland, OH

Home | Current Version | Previous Version | Graphics & Text | Print | Product List | Glossary Off
Versions: 1 2 3 4 5 6 7 8 9 10 11 12 13 14 15 16 17 18 19 20 21 22 23

000
FTUS41 KCLE 291137
TAFCAK
TAF
KCAK 291137Z 2912/3012 02005KT 5SM BR BKN007 OVC012
     FM291300 02010KT P6SM BKN012 OVC025
      TEMPO 2913/2916 BKN025
     FM291600 02010KT P6SM SCT025
     FM300600 08011KT P6SM OVC120=

USA.gov is the U.S. government's official web portal to all federal, state and local government web resources and services.